sensor_id;sensor_type;location;lat;lon;timestamp;P1;durP1;ratioP1;P2;durP2;ratioP2
37047;SDS011;23227;48.780;9.210;2023-04-15T00:00:11;7.80;;;2.30;;
37047;SDS011;23227;48.780;9.210;2023-04-15T00:03:17;9.87;;;2.67;;
37047;SDS011;23227;48.780;9.210;2023-04-15T00:06:20;5.60;;;2.40;;
37047;SDS011;23227;48.780;9.210;2023-04-15T00:09:23;10.48;;;2.75;;
37047;SDS011;23227;48.780;9.210;2023-04-15T00:12:26;8.20;;;2.93;;
37047;SDS011;23227;48.780;9.210;2023-04-15T00:15:29;5.00;;;2.55;;
37047;SDS011;23227;48.780;9.210;2023-04-15T00:18:33;6.40;;;2.67;;
37047;SDS011;23227;48.780;9.210;2023-04-15T00:21:36;7.27;;;2.37;;
37047;SDS011;23227;48.780;9.210;2023-04-15T00:24:39;6.87;;;2.40;;
37047;SDS011;23227;48.780;9.210;2023-04-15T00:27:42;6.85;;;2.53;;
37047;SDS011;23227;48.780;9.210;2023-04-15T00:30:44;6.83;;;2.70;;
37047;SDS011;23227;48.780;9.210;2023-04-15T00:33:48;7.70;;;2.83;;
37047;SDS011;23227;48.780;9.210;2023-04-15T00:36:51;9.83;;;2.43;;
37047;SDS011;23227;48.780;9.210;2023-04-15T00:39:54;7.60;;;2.80;;
37047;SDS011;23227;48.780;9.210;2023-04-15T00:42:57;6.23;;;2.73;;
37047;SDS011;23227;48.780;9.210;2023-04-15T00:45:59;7.67;;;3.20;;
37047;SDS011;23227;48.780;9.210;2023-04-15T00:49:05;5.30;;;2.17;;
37047;SDS011;23227;48.780;9.210;2023-04-15T00:52:08;7.63;;;2.40;;
37047;SDS011;23227;48.780;9.210;2023-04-15T00:55:11;4.63;;;2.73;;
37047;SDS011;23227;48.780;9.210;2023-04-15T00:58:14;9.90;;;2.30;;
37047;SDS011;23227;48.780;9.210;2023-04-15T01:01:19;6.00;;;2.30;;
37047;SDS011;23227;48.780;9.210;2023-04-15T01:04:28;6.40;;;2.43;;
37047;SDS011;23227;48.780;9.210;2023-04-15T01:07:31;4.27;;;2.27;;
37047;SDS011;23227;48.780;9.210;2023-04-15T01:10:36;7.10;;;2.67;;
37047;SDS011;23227;48.780;9.210;2023-04-15T01:13:43;9.57;;;2.57;;
37047;SDS011;23227;48.780;9.210;2023-04-15T01:16:45;5.87;;;2.43;;
37047;SDS011;23227;48.780;9.210;2023-04-15T01:19:49;10.57;;;2.40;;
37047;SDS011;23227;48.780;9.210;2023-04-15T01:22:52;4.70;;;2.37;;
37047;SDS011;23227;48.780;9.210;2023-04-15T01:25:57;6.50;;;2.58;;
37047;SDS011;23227;48.780;9.210;2023-04-15T01:29:00;7.33;;;2.50;;
37047;SDS011;23227;48.780;9.210;2023-04-15T01:32:03;6.03;;;2.47;;
37047;SDS011;23227;48.780;9.210;2023-04-15T01:35:06;7.15;;;2.58;;
37047;SDS011;23227;48.780;9.210;2023-04-15T01:38:09;7.32;;;2.95;;
37047;SDS011;23227;48.780;9.210;2023-04-15T01:44:16;6.50;;;2.20;;
37047;SDS011;23227;48.780;9.210;2023-04-15T01:47:19;9.63;;;2.80;;
37047;SDS011;23227;48.780;9.210;2023-04-15T01:50:22;7.47;;;2.20;;
37047;SDS011;23227;48.780;9.210;2023-04-15T01:53:26;6.57;;;2.50;;
37047;SDS011;23227;48.780;9.210;2023-04-15T01:56:30;5.63;;;2.72;;
37047;SDS011;23227;48.780;9.210;2023-04-15T01:59:33;8.40;;;2.63;;
37047;SDS011;23227;48.780;9.210;2023-04-15T02:02:36;8.63;;;2.73;;
37047;SDS011;23227;48.780;9.210;2023-04-15T02:05:39;7.23;;;2.30;;
37047;SDS011;23227;48.780;9.210;2023-04-15T02:08:41;10.40;;;3.17;;
37047;SDS011;23227;48.780;9.210;2023-04-15T02:11:45;14.40;;;3.87;;
37047;SDS011;23227;48.780;9.210;2023-04-15T02:17:50;10.13;;;2.70;;
37047;SDS011;23227;48.780;9.210;2023-04-15T02:20:55;4.87;;;3.30;;
37047;SDS011;23227;48.780;9.210;2023-04-15T02:23:59;4.68;;;2.83;;
37047;SDS011;23227;48.780;9.210;2023-04-15T02:27:03;4.38;;;2.92;;
37047;SDS011;23227;48.780;9.210;2023-04-15T02:30:06;5.13;;;2.10;;
37047;SDS011;23227;48.780;9.210;2023-04-15T02:33:09;6.68;;;2.50;;
37047;SDS011;23227;48.780;9.210;2023-04-15T02:36:12;10.70;;;3.40;;
37047;SDS011;23227;48.780;9.210;2023-04-15T02:39:14;6.67;;;2.77;;
37047;SDS011;23227;48.780;9.210;2023-04-15T02:45:22;6.53;;;2.47;;
37047;SDS011;23227;48.780;9.210;2023-04-15T02:48:27;4.57;;;3.00;;
37047;SDS011;23227;48.780;9.210;2023-04-15T02:51:30;7.73;;;3.03;;
37047;SDS011;23227;48.780;9.210;2023-04-15T02:54:32;8.43;;;2.83;;
37047;SDS011;23227;48.780;9.210;2023-04-15T02:57:36;9.57;;;2.53;;
37047;SDS011;23227;48.780;9.210;2023-04-15T03:00:40;5.53;;;3.07;;
37047;SDS011;23227;48.780;9.210;2023-04-15T03:03:43;6.07;;;2.60;;
37047;SDS011;23227;48.780;9.210;2023-04-15T03:06:46;7.67;;;2.80;;
37047;SDS011;23227;48.780;9.210;2023-04-15T03:09:48;8.83;;;2.90;;
37047;SDS011;23227;48.780;9.210;2023-04-15T03:12:53;7.13;;;2.53;;
37047;SDS011;23227;48.780;9.210;2023-04-15T03:15:55;7.60;;;3.13;;
37047;SDS011;23227;48.780;9.210;2023-04-15T03:18:58;6.53;;;2.90;;
37047;SDS011;23227;48.780;9.210;2023-04-15T03:22:01;7.57;;;2.75;;
37047;SDS011;23227;48.780;9.210;2023-04-15T03:25:04;6.13;;;3.00;;
37047;SDS011;23227;48.780;9.210;2023-04-15T03:28:09;7.65;;;2.67;;
37047;SDS011;23227;48.780;9.210;2023-04-15T03:31:11;11.53;;;3.17;;
37047;SDS011;23227;48.780;9.210;2023-04-15T03:34:14;6.47;;;2.40;;
37047;SDS011;23227;48.780;9.210;2023-04-15T03:37:17;7.87;;;2.77;;
37047;SDS011;23227;48.780;9.210;2023-04-15T03:40:19;8.23;;;2.53;;
37047;SDS011;23227;48.780;9.210;2023-04-15T03:43:24;5.53;;;2.88;;
37047;SDS011;23227;48.780;9.210;2023-04-15T03:49:29;7.47;;;3.00;;
37047;SDS011;23227;48.780;9.210;2023-04-15T03:52:31;10.77;;;4.10;;
37047;SDS011;23227;48.780;9.210;2023-04-15T03:55:34;9.20;;;2.67;;
37047;SDS011;23227;48.780;9.210;2023-04-15T03:58:38;5.97;;;2.87;;
37047;SDS011;23227;48.780;9.210;2023-04-15T04:04:43;9.27;;;3.10;;
37047;SDS011;23227;48.780;9.210;2023-04-15T04:10:49;3.53;;;2.70;;
37047;SDS011;23227;48.780;9.210;2023-04-15T04:13:53;6.27;;;2.90;;
37047;SDS011;23227;48.780;9.210;2023-04-15T04:19:58;8.77;;;3.23;;
37047;SDS011;23227;48.780;9.210;2023-04-15T04:23:01;4.30;;;2.50;;
37047;SDS011;23227;48.780;9.210;2023-04-15T04:26:03;10.43;;;3.67;;
37047;SDS011;23227;48.780;9.210;2023-04-15T04:29:07;6.40;;;3.10;;
37047;SDS011;23227;48.780;9.210;2023-04-15T04:32:10;5.97;;;3.30;;
37047;SDS011;23227;48.780;9.210;2023-04-15T04:35:13;9.30;;;3.03;;
37047;SDS011;23227;48.780;9.210;2023-04-15T04:38:15;8.90;;;2.58;;
37047;SDS011;23227;48.780;9.210;2023-04-15T04:41:18;12.30;;;3.50;;
37047;SDS011;23227;48.780;9.210;2023-04-15T04:44:22;7.25;;;2.95;;
37047;SDS011;23227;48.780;9.210;2023-04-15T04:47:25;4.87;;;2.43;;
37047;SDS011;23227;48.780;9.210;2023-04-15T04:50:27;10.83;;;3.30;;
37047;SDS011;23227;48.780;9.210;2023-04-15T04:53:31;9.77;;;2.63;;
37047;SDS011;23227;48.780;9.210;2023-04-15T04:56:33;12.07;;;2.93;;
37047;SDS011;23227;48.780;9.210;2023-04-15T04:59:37;7.37;;;2.70;;
37047;SDS011;23227;48.780;9.210;2023-04-15T05:05:44;8.13;;;2.75;;
37047;SDS011;23227;48.780;9.210;2023-04-15T05:08:47;6.30;;;2.63;;
37047;SDS011;23227;48.780;9.210;2023-04-15T05:11:50;10.00;;;2.90;;
37047;SDS011;23227;48.780;9.210;2023-04-15T05:14:54;7.00;;;3.03;;
37047;SDS011;23227;48.780;9.210;2023-04-15T05:20:58;28.83;;;9.27;;
37047;SDS011;23227;48.780;9.210;2023-04-15T05:24:01;19.00;;;6.17;;
37047;SDS011;23227;48.780;9.210;2023-04-15T05:27:04;13.20;;;5.45;;
37047;SDS011;23227;48.780;9.210;2023-04-15T05:30:10;14.37;;;4.53;;
37047;SDS011;23227;48.780;9.210;2023-04-15T05:33:14;11.33;;;4.30;;
37047;SDS011;23227;48.780;9.210;2023-04-15T05:36:16;7.10;;;3.63;;
37047;SDS011;23227;48.780;9.210;2023-04-15T05:39:19;7.17;;;4.30;;
37047;SDS011;23227;48.780;9.210;2023-04-15T05:42:22;5.32;;;3.15;;
37047;SDS011;23227;48.780;9.210;2023-04-15T05:45:26;7.20;;;3.80;;
37047;SDS011;23227;48.780;9.210;2023-04-15T05:48:28;10.70;;;3.70;;
37047;SDS011;23227;48.780;9.210;2023-04-15T05:51:31;9.30;;;3.80;;
37047;SDS011;23227;48.780;9.210;2023-04-15T05:54:34;12.00;;;3.83;;
37047;SDS011;23227;48.780;9.210;2023-04-15T05:57:36;7.57;;;3.50;;
37047;SDS011;23227;48.780;9.210;2023-04-15T06:00:40;10.17;;;4.03;;
37047;SDS011;23227;48.780;9.210;2023-04-15T06:03:44;7.17;;;3.93;;
37047;SDS011;23227;48.780;9.210;2023-04-15T06:06:47;8.20;;;4.30;;
37047;SDS011;23227;48.780;9.210;2023-04-15T06:09:49;6.60;;;3.83;;
37047;SDS011;23227;48.780;9.210;2023-04-15T06:12:52;10.87;;;4.23;;
37047;SDS011;23227;48.780;9.210;2023-04-15T06:15:56;7.90;;;4.30;;
37047;SDS011;23227;48.780;9.210;2023-04-15T06:18:59;6.07;;;3.73;;
37047;SDS011;23227;48.780;9.210;2023-04-15T06:22:02;9.45;;;3.72;;
37047;SDS011;23227;48.780;9.210;2023-04-15T06:25:07;9.53;;;4.20;;
37047;SDS011;23227;48.780;9.210;2023-04-15T06:28:10;11.30;;;4.38;;
37047;SDS011;23227;48.780;9.210;2023-04-15T06:31:14;10.93;;;3.67;;
37047;SDS011;23227;48.780;9.210;2023-04-15T06:34:17;7.97;;;3.60;;
37047;SDS011;23227;48.780;9.210;2023-04-15T06:37:19;9.87;;;4.43;;
37047;SDS011;23227;48.780;9.210;2023-04-15T06:40:22;7.63;;;3.57;;
37047;SDS011;23227;48.780;9.210;2023-04-15T06:43:24;6.97;;;3.83;;
37047;SDS011;23227;48.780;9.210;2023-04-15T06:46:28;9.77;;;4.03;;
37047;SDS011;23227;48.780;9.210;2023-04-15T06:49:31;10.30;;;3.20;;
37047;SDS011;23227;48.780;9.210;2023-04-15T06:52:34;6.60;;;3.28;;
37047;SDS011;23227;48.780;9.210;2023-04-15T06:55:36;7.50;;;3.70;;
37047;SDS011;23227;48.780;9.210;2023-04-15T07:01:44;8.57;;;3.40;;
37047;SDS011;23227;48.780;9.210;2023-04-15T07:04:46;7.67;;;3.20;;
37047;SDS011;23227;48.780;9.210;2023-04-15T07:07:49;10.00;;;3.90;;
37047;SDS011;23227;48.780;9.210;2023-04-15T07:10:51;11.00;;;4.30;;
37047;SDS011;23227;48.780;9.210;2023-04-15T07:13:54;7.83;;;3.57;;
37047;SDS011;23227;48.780;9.210;2023-04-15T07:16:58;5.00;;;3.10;;
37047;SDS011;23227;48.780;9.210;2023-04-15T07:20:01;13.80;;;3.43;;
37047;SDS011;23227;48.780;9.210;2023-04-15T07:23:05;11.27;;;3.43;;
37047;SDS011;23227;48.780;9.210;2023-04-15T07:26:08;5.88;;;3.05;;
37047;SDS011;23227;48.780;9.210;2023-04-15T07:29:11;6.65;;;3.30;;
37047;SDS011;23227;48.780;9.210;2023-04-15T07:32:15;8.60;;;3.70;;
37047;SDS011;23227;48.780;9.210;2023-04-15T07:35:17;6.23;;;3.20;;
37047;SDS011;23227;48.780;9.210;2023-04-15T07:38:21;11.07;;;3.43;;
37047;SDS011;23227;48.780;9.210;2023-04-15T07:41:24;6.55;;;3.20;;
37047;SDS011;23227;48.780;9.210;2023-04-15T07:44:27;7.35;;;2.95;;
37047;SDS011;23227;48.780;9.210;2023-04-15T07:47:31;11.15;;;3.53;;
37047;SDS011;23227;48.780;9.210;2023-04-15T07:50:35;6.97;;;3.07;;
37047;SDS011;23227;48.780;9.210;2023-04-15T07:56:40;7.40;;;3.10;;
37047;SDS011;23227;48.780;9.210;2023-04-15T07:59:43;10.47;;;3.27;;
37047;SDS011;23227;48.780;9.210;2023-04-15T08:02:47;6.80;;;3.07;;
37047;SDS011;23227;48.780;9.210;2023-04-15T08:05:50;7.40;;;3.10;;
37047;SDS011;23227;48.780;9.210;2023-04-15T08:08:53;6.03;;;2.87;;
37047;SDS011;23227;48.780;9.210;2023-04-15T08:11:55;10.32;;;3.90;;
37047;SDS011;23227;48.780;9.210;2023-04-15T08:14:58;6.50;;;3.10;;
37047;SDS011;23227;48.780;9.210;2023-04-15T08:18:03;6.77;;;2.93;;
37047;SDS011;23227;48.780;9.210;2023-04-15T08:21:06;5.27;;;2.73;;
37047;SDS011;23227;48.780;9.210;2023-04-15T08:24:08;5.17;;;2.63;;
37047;SDS011;23227;48.780;9.210;2023-04-15T08:27:11;8.80;;;2.67;;
37047;SDS011;23227;48.780;9.210;2023-04-15T08:30:14;7.40;;;3.27;;
37047;SDS011;23227;48.780;9.210;2023-04-15T08:33:18;6.13;;;3.00;;
37047;SDS011;23227;48.780;9.210;2023-04-15T08:36:20;7.37;;;2.63;;
37047;SDS011;23227;48.780;9.210;2023-04-15T08:39:23;10.77;;;2.93;;
37047;SDS011;23227;48.780;9.210;2023-04-15T08:42:27;7.90;;;3.50;;
37047;SDS011;23227;48.780;9.210;2023-04-15T08:45:32;6.07;;;2.73;;
37047;SDS011;23227;48.780;9.210;2023-04-15T08:48:37;6.15;;;3.10;;
37047;SDS011;23227;48.780;9.210;2023-04-15T08:51:40;8.50;;;3.00;;
37047;SDS011;23227;48.780;9.210;2023-04-15T08:54:43;10.40;;;2.90;;
37047;SDS011;23227;48.780;9.210;2023-04-15T08:57:46;10.80;;;3.50;;
37047;SDS011;23227;48.780;9.210;2023-04-15T09:00:48;6.20;;;3.00;;
37047;SDS011;23227;48.780;9.210;2023-04-15T09:03:53;6.53;;;3.13;;
37047;SDS011;23227;48.780;9.210;2023-04-15T09:06:56;7.83;;;2.90;;
37047;SDS011;23227;48.780;9.210;2023-04-15T09:09:59;10.48;;;3.25;;
37047;SDS011;23227;48.780;9.210;2023-04-15T09:13:02;7.78;;;2.80;;
37047;SDS011;23227;48.780;9.210;2023-04-15T09:16:05;5.63;;;2.97;;
37047;SDS011;23227;48.780;9.210;2023-04-15T09:19:23;7.67;;;3.17;;
37047;SDS011;23227;48.780;9.210;2023-04-15T09:22:30;8.07;;;2.77;;
37047;SDS011;23227;48.780;9.210;2023-04-15T09:25:33;5.10;;;2.70;;
37047;SDS011;23227;48.780;9.210;2023-04-15T09:28:40;5.35;;;2.22;;
37047;SDS011;23227;48.780;9.210;2023-04-15T09:31:43;4.20;;;2.00;;
37047;SDS011;23227;48.780;9.210;2023-04-15T09:34:47;5.20;;;1.90;;
37047;SDS011;23227;48.780;9.210;2023-04-15T09:37:51;5.50;;;2.23;;
37047;SDS011;23227;48.780;9.210;2023-04-15T09:40:54;3.17;;;2.20;;
37047;SDS011;23227;48.780;9.210;2023-04-15T09:47:00;7.43;;;2.37;;
37047;SDS011;23227;48.780;9.210;2023-04-15T09:50:04;7.30;;;2.35;;
37047;SDS011;23227;48.780;9.210;2023-04-15T09:53:08;4.43;;;2.30;;
37047;SDS011;23227;48.780;9.210;2023-04-15T09:56:11;4.85;;;1.95;;
37047;SDS011;23227;48.780;9.210;2023-04-15T09:59:13;7.30;;;2.60;;
37047;SDS011;23227;48.780;9.210;2023-04-15T10:02:17;6.47;;;2.80;;
37047;SDS011;23227;48.780;9.210;2023-04-15T10:05:22;4.70;;;1.30;;
37047;SDS011;23227;48.780;9.210;2023-04-15T10:08:26;4.87;;;1.87;;
37047;SDS011;23227;48.780;9.210;2023-04-15T10:11:30;3.10;;;1.87;;
37047;SDS011;23227;48.780;9.210;2023-04-15T10:14:33;4.53;;;1.45;;
37047;SDS011;23227;48.780;9.210;2023-04-15T10:17:38;4.60;;;1.60;;
37047;SDS011;23227;48.780;9.210;2023-04-15T10:20:46;3.70;;;2.10;;
37047;SDS011;23227;48.780;9.210;2023-04-15T10:23:49;2.97;;;1.67;;
37047;SDS011;23227;48.780;9.210;2023-04-15T10:26:53;8.73;;;2.65;;
37047;SDS011;23227;48.780;9.210;2023-04-15T10:29:55;6.18;;;1.58;;
37047;SDS011;23227;48.780;9.210;2023-04-15T10:32:58;4.68;;;1.60;;
37047;SDS011;23227;48.780;9.210;2023-04-15T10:36:03;12.00;;;1.95;;
37047;SDS011;23227;48.780;9.210;2023-04-15T10:39:21;4.73;;;1.97;;
37047;SDS011;23227;48.780;9.210;2023-04-15T10:42:40;5.70;;;2.10;;
37047;SDS011;23227;48.780;9.210;2023-04-15T10:45:43;3.97;;;2.00;;
37047;SDS011;23227;48.780;9.210;2023-04-15T10:48:46;5.50;;;2.03;;
37047;SDS011;23227;48.780;9.210;2023-04-15T10:51:52;4.13;;;1.70;;
37047;SDS011;23227;48.780;9.210;2023-04-15T10:55:01;3.57;;;1.47;;
37047;SDS011;23227;48.780;9.210;2023-04-15T10:58:05;4.00;;;1.57;;
37047;SDS011;23227;48.780;9.210;2023-04-15T11:01:07;3.72;;;1.55;;
37047;SDS011;23227;48.780;9.210;2023-04-15T11:04:10;2.67;;;1.73;;
37047;SDS011;23227;48.780;9.210;2023-04-15T11:07:14;4.35;;;1.50;;
37047;SDS011;23227;48.780;9.210;2023-04-15T11:13:56;5.30;;;1.83;;
37047;SDS011;23227;48.780;9.210;2023-04-15T11:16:59;4.38;;;1.65;;
37047;SDS011;23227;48.780;9.210;2023-04-15T11:20:02;6.13;;;1.55;;
37047;SDS011;23227;48.780;9.210;2023-04-15T11:23:07;6.50;;;2.47;;
37047;SDS011;23227;48.780;9.210;2023-04-15T11:26:15;5.73;;;2.57;;
37047;SDS011;23227;48.780;9.210;2023-04-15T11:29:18;7.90;;;2.22;;
37047;SDS011;23227;48.780;9.210;2023-04-15T11:32:21;3.28;;;1.90;;
37047;SDS011;23227;48.780;9.210;2023-04-15T11:35:24;1.60;;;1.08;;
37047;SDS011;23227;48.780;9.210;2023-04-15T11:38:28;5.82;;;1.70;;
37047;SDS011;23227;48.780;9.210;2023-04-15T11:41:31;4.30;;;1.57;;
37047;SDS011;23227;48.780;9.210;2023-04-15T11:44:34;5.43;;;2.35;;
37047;SDS011;23227;48.780;9.210;2023-04-15T11:47:36;4.90;;;2.30;;
37047;SDS011;23227;48.780;9.210;2023-04-15T11:50:39;4.82;;;1.80;;
37047;SDS011;23227;48.780;9.210;2023-04-15T11:53:44;3.10;;;1.38;;
37047;SDS011;23227;48.780;9.210;2023-04-15T11:56:49;7.87;;;2.30;;
37047;SDS011;23227;48.780;9.210;2023-04-15T11:59:53;4.93;;;1.83;;
37047;SDS011;23227;48.780;9.210;2023-04-15T12:03:10;7.80;;;2.47;;
37047;SDS011;23227;48.780;9.210;2023-04-15T12:06:14;6.40;;;2.00;;
37047;SDS011;23227;48.780;9.210;2023-04-15T12:09:20;3.03;;;2.10;;
37047;SDS011;23227;48.780;9.210;2023-04-15T12:12:25;8.63;;;2.40;;
37047;SDS011;23227;48.780;9.210;2023-04-15T12:15:28;7.33;;;2.20;;
37047;SDS011;23227;48.780;9.210;2023-04-15T12:18:31;6.60;;;2.30;;
37047;SDS011;23227;48.780;9.210;2023-04-15T12:21:34;3.88;;;1.90;;
37047;SDS011;23227;48.780;9.210;2023-04-15T12:24:40;7.43;;;2.30;;
37047;SDS011;23227;48.780;9.210;2023-04-15T12:27:49;4.30;;;1.90;;
37047;SDS011;23227;48.780;9.210;2023-04-15T12:30:53;4.97;;;1.50;;
37047;SDS011;23227;48.780;9.210;2023-04-15T12:33:56;7.15;;;2.00;;
37047;SDS011;23227;48.780;9.210;2023-04-15T12:36:59;4.20;;;2.17;;
37047;SDS011;23227;48.780;9.210;2023-04-15T12:40:06;7.10;;;2.87;;
37047;SDS011;23227;48.780;9.210;2023-04-15T12:43:09;6.57;;;3.30;;
37047;SDS011;23227;48.780;9.210;2023-04-15T12:46:12;4.85;;;2.65;;
37047;SDS011;23227;48.780;9.210;2023-04-15T12:49:15;5.05;;;2.90;;
37047;SDS011;23227;48.780;9.210;2023-04-15T12:52:20;5.70;;;2.30;;
37047;SDS011;23227;48.780;9.210;2023-04-15T12:55:25;4.97;;;2.90;;
37047;SDS011;23227;48.780;9.210;2023-04-15T12:58:28;6.80;;;3.40;;
37047;SDS011;23227;48.780;9.210;2023-04-15T13:01:31;4.60;;;3.03;;
37047;SDS011;23227;48.780;9.210;2023-04-15T13:04:33;5.47;;;2.90;;
37047;SDS011;23227;48.780;9.210;2023-04-15T13:07:36;3.80;;;2.60;;
37047;SDS011;23227;48.780;9.210;2023-04-15T13:10:40;2.83;;;2.15;;
37047;SDS011;23227;48.780;9.210;2023-04-15T13:13:43;4.23;;;2.10;;
37047;SDS011;23227;48.780;9.210;2023-04-15T13:16:46;6.53;;;2.50;;
37047;SDS011;23227;48.780;9.210;2023-04-15T13:19:48;4.97;;;2.10;;
37047;SDS011;23227;48.780;9.210;2023-04-15T13:22:51;2.67;;;1.70;;
37047;SDS011;23227;48.780;9.210;2023-04-15T13:25:55;2.72;;;1.65;;
37047;SDS011;23227;48.780;9.210;2023-04-15T13:28:58;3.40;;;2.03;;
37047;SDS011;23227;48.780;9.210;2023-04-15T13:32:02;3.27;;;1.60;;
37047;SDS011;23227;48.780;9.210;2023-04-15T13:35:04;3.60;;;1.70;;
37047;SDS011;23227;48.780;9.210;2023-04-15T13:38:07;2.30;;;1.33;;
37047;SDS011;23227;48.780;9.210;2023-04-15T13:41:11;3.15;;;1.67;;
37047;SDS011;23227;48.780;9.210;2023-04-15T13:44:14;3.50;;;1.87;;
37047;SDS011;23227;48.780;9.210;2023-04-15T13:47:17;2.47;;;1.20;;
37047;SDS011;23227;48.780;9.210;2023-04-15T13:53:23;2.57;;;1.50;;
37047;SDS011;23227;48.780;9.210;2023-04-15T13:56:40;2.13;;;1.30;;
37047;SDS011;23227;48.780;9.210;2023-04-15T13:59:43;1.87;;;1.13;;
37047;SDS011;23227;48.780;9.210;2023-04-15T14:02:46;0.93;;;0.60;;
37047;SDS011;23227;48.780;9.210;2023-04-15T14:05:49;3.17;;;1.00;;
37047;SDS011;23227;48.780;9.210;2023-04-15T14:08:56;3.00;;;1.23;;
37047;SDS011;23227;48.780;9.210;2023-04-15T14:12:00;1.33;;;1.20;;
37047;SDS011;23227;48.780;9.210;2023-04-15T14:15:03;3.77;;;1.00;;
37047;SDS011;23227;48.780;9.210;2023-04-15T14:18:06;1.00;;;0.63;;
37047;SDS011;23227;48.780;9.210;2023-04-15T14:21:09;2.50;;;0.60;;
37047;SDS011;23227;48.780;9.210;2023-04-15T14:24:11;4.00;;;0.97;;
37047;SDS011;23227;48.780;9.210;2023-04-15T14:27:15;6.88;;;0.90;;
37047;SDS011;23227;48.780;9.210;2023-04-15T14:30:18;4.07;;;0.60;;
37047;SDS011;23227;48.780;9.210;2023-04-15T14:33:21;1.40;;;0.60;;
37047;SDS011;23227;48.780;9.210;2023-04-15T14:36:24;1.80;;;0.80;;
37047;SDS011;23227;48.780;9.210;2023-04-15T14:39:27;1.83;;;1.00;;
37047;SDS011;23227;48.780;9.210;2023-04-15T14:42:31;3.40;;;0.90;;
37047;SDS011;23227;48.780;9.210;2023-04-15T14:45:34;2.20;;;1.00;;
37047;SDS011;23227;48.780;9.210;2023-04-15T14:48:36;1.17;;;0.70;;
37047;SDS011;23227;48.780;9.210;2023-04-15T14:51:39;1.77;;;0.60;;
37047;SDS011;23227;48.780;9.210;2023-04-15T14:54:42;1.95;;;0.65;;
37047;SDS011;23227;48.780;9.210;2023-04-15T14:57:46;3.07;;;0.90;;
37047;SDS011;23227;48.780;9.210;2023-04-15T15:00:49;0.90;;;0.67;;
37047;SDS011;23227;48.780;9.210;2023-04-15T15:03:51;4.03;;;0.80;;
37047;SDS011;23227;48.780;9.210;2023-04-15T15:06:54;2.28;;;0.90;;
37047;SDS011;23227;48.780;9.210;2023-04-15T15:09:57;1.47;;;0.60;;
37047;SDS011;23227;48.780;9.210;2023-04-15T15:13:01;2.33;;;1.17;;
37047;SDS011;23227;48.780;9.210;2023-04-15T15:16:03;1.90;;;0.90;;
37047;SDS011;23227;48.780;9.210;2023-04-15T15:19:07;4.53;;;1.13;;
37047;SDS011;23227;48.780;9.210;2023-04-15T15:22:09;1.75;;;1.13;;
37047;SDS011;23227;48.780;9.210;2023-04-15T15:25:12;1.40;;;1.05;;
37047;SDS011;23227;48.780;9.210;2023-04-15T15:28:16;2.23;;;1.13;;
37047;SDS011;23227;48.780;9.210;2023-04-15T15:31:18;1.33;;;1.03;;
37047;SDS011;23227;48.780;9.210;2023-04-15T15:34:21;2.25;;;1.10;;
37047;SDS011;23227;48.780;9.210;2023-04-15T15:37:24;2.23;;;1.20;;
37047;SDS011;23227;48.780;9.210;2023-04-15T15:40:26;1.73;;;1.07;;
37047;SDS011;23227;48.780;9.210;2023-04-15T15:43:30;2.83;;;1.30;;
37047;SDS011;23227;48.780;9.210;2023-04-15T15:46:33;3.00;;;1.30;;
37047;SDS011;23227;48.780;9.210;2023-04-15T15:49:36;8.40;;;1.98;;
37047;SDS011;23227;48.780;9.210;2023-04-15T15:52:39;2.27;;;1.27;;
37047;SDS011;23227;48.780;9.210;2023-04-15T15:55:41;3.65;;;1.50;;
37047;SDS011;23227;48.780;9.210;2023-04-15T15:58:45;1.10;;;1.00;;
37047;SDS011;23227;48.780;9.210;2023-04-15T16:01:48;4.20;;;1.07;;
37047;SDS011;23227;48.780;9.210;2023-04-15T16:04:50;3.53;;;1.65;;
37047;SDS011;23227;48.780;9.210;2023-04-15T16:07:53;3.57;;;1.17;;
37047;SDS011;23227;48.780;9.210;2023-04-15T16:10:56;1.90;;;1.10;;
37047;SDS011;23227;48.780;9.210;2023-04-15T16:14:00;1.23;;;0.93;;
37047;SDS011;23227;48.780;9.210;2023-04-15T16:17:02;2.00;;;1.10;;
37047;SDS011;23227;48.780;9.210;2023-04-15T16:20:05;4.00;;;2.00;;
37047;SDS011;23227;48.780;9.210;2023-04-15T16:26:13;1.77;;;1.07;;
37047;SDS011;23227;48.780;9.210;2023-04-15T16:29:17;4.37;;;1.60;;
37047;SDS011;23227;48.780;9.210;2023-04-15T16:32:19;2.97;;;1.37;;
37047;SDS011;23227;48.780;9.210;2023-04-15T16:35:22;5.88;;;1.60;;
37047;SDS011;23227;48.780;9.210;2023-04-15T16:38:25;3.97;;;1.53;;
37047;SDS011;23227;48.780;9.210;2023-04-15T16:41:28;3.43;;;1.80;;
37047;SDS011;23227;48.780;9.210;2023-04-15T16:44:34;2.17;;;1.70;;
37047;SDS011;23227;48.780;9.210;2023-04-15T16:47:37;2.40;;;1.60;;
37047;SDS011;23227;48.780;9.210;2023-04-15T16:50:40;4.57;;;2.03;;
37047;SDS011;23227;48.780;9.210;2023-04-15T16:53:42;5.47;;;1.80;;
37047;SDS011;23227;48.780;9.210;2023-04-15T16:56:45;2.37;;;1.60;;
37047;SDS011;23227;48.780;9.210;2023-04-15T16:59:49;2.67;;;1.97;;
37047;SDS011;23227;48.780;9.210;2023-04-15T17:02:52;4.73;;;2.27;;
37047;SDS011;23227;48.780;9.210;2023-04-15T17:05:56;2.93;;;1.83;;
37047;SDS011;23227;48.780;9.210;2023-04-15T17:08:59;2.80;;;1.80;;
37047;SDS011;23227;48.780;9.210;2023-04-15T17:12:02;2.63;;;2.00;;
37047;SDS011;23227;48.780;9.210;2023-04-15T17:15:08;2.77;;;2.40;;
37047;SDS011;23227;48.780;9.210;2023-04-15T17:18:11;3.83;;;2.03;;
37047;SDS011;23227;48.780;9.210;2023-04-15T17:21:14;4.13;;;2.30;;
37047;SDS011;23227;48.780;9.210;2023-04-15T17:24:17;3.63;;;2.40;;
37047;SDS011;23227;48.780;9.210;2023-04-15T17:27:20;2.90;;;2.40;;
37047;SDS011;23227;48.780;9.210;2023-04-15T17:30:24;7.10;;;2.60;;
37047;SDS011;23227;48.780;9.210;2023-04-15T17:33:27;4.57;;;2.50;;
37047;SDS011;23227;48.780;9.210;2023-04-15T17:36:49;6.67;;;2.10;;
37047;SDS011;23227;48.780;9.210;2023-04-15T17:39:53;5.10;;;2.13;;
37047;SDS011;23227;48.780;9.210;2023-04-15T17:42:56;3.55;;;2.05;;
37047;SDS011;23227;48.780;9.210;2023-04-15T17:46:00;2.73;;;2.07;;
37047;SDS011;23227;48.780;9.210;2023-04-15T17:49:03;4.50;;;2.37;;
37047;SDS011;23227;48.780;9.210;2023-04-15T17:52:07;3.27;;;2.43;;
37047;SDS011;23227;48.780;9.210;2023-04-15T17:55:09;6.57;;;2.00;;
37047;SDS011;23227;48.780;9.210;2023-04-15T17:58:12;2.90;;;1.83;;
37047;SDS011;23227;48.780;9.210;2023-04-15T18:01:16;2.73;;;2.07;;
37047;SDS011;23227;48.780;9.210;2023-04-15T18:04:18;5.17;;;2.23;;
37047;SDS011;23227;48.780;9.210;2023-04-15T18:07:24;3.40;;;2.10;;
37047;SDS011;23227;48.780;9.210;2023-04-15T18:10:26;4.30;;;3.40;;
37047;SDS011;23227;48.780;9.210;2023-04-15T18:13:29;2.90;;;2.10;;
37047;SDS011;23227;48.780;9.210;2023-04-15T18:16:33;1.93;;;1.40;;
37047;SDS011;23227;48.780;9.210;2023-04-15T18:19:35;3.20;;;1.43;;
37047;SDS011;23227;48.780;9.210;2023-04-15T18:22:38;1.73;;;1.30;;
37047;SDS011;23227;48.780;9.210;2023-04-15T18:25:41;2.27;;;1.57;;
37047;SDS011;23227;48.780;9.210;2023-04-15T18:28:44;2.37;;;1.80;;
37047;SDS011;23227;48.780;9.210;2023-04-15T18:31:48;2.60;;;2.10;;
37047;SDS011;23227;48.780;9.210;2023-04-15T18:34:51;5.03;;;3.83;;
37047;SDS011;23227;48.780;9.210;2023-04-15T18:37:55;2.57;;;2.10;;
37047;SDS011;23227;48.780;9.210;2023-04-15T18:40:58;3.73;;;2.30;;
37047;SDS011;23227;48.780;9.210;2023-04-15T18:44:01;4.13;;;2.20;;
37047;SDS011;23227;48.780;9.210;2023-04-15T18:47:04;2.20;;;1.87;;
37047;SDS011;23227;48.780;9.210;2023-04-15T18:50:07;3.73;;;1.93;;
37047;SDS011;23227;48.780;9.210;2023-04-15T18:53:10;2.10;;;1.92;;
37047;SDS011;23227;48.780;9.210;2023-04-15T18:56:13;2.22;;;1.77;;
37047;SDS011;23227;48.780;9.210;2023-04-15T18:59:16;3.30;;;1.90;;
37047;SDS011;23227;48.780;9.210;2023-04-15T19:02:32;2.63;;;2.07;;
37047;SDS011;23227;48.780;9.210;2023-04-15T19:05:35;2.43;;;2.00;;
37047;SDS011;23227;48.780;9.210;2023-04-15T19:08:38;3.30;;;2.42;;